Time;durP1;ratioP1;P1;durP2;ratioP2;P2;SDS_P1;SDS_P2;PMS_P1;PMS_P2;Temp;Humidity;BMP_temperature;BMP_pressure;BME280_temperature;BME280_humidity;BME280_pressure;Samples;Min_cycle;Max_cycle;Signal;HPM_P1;HPM_P2
2022/04/20 00:01:50;;;;;;;2.53;2.03;;;18.60;49.10;;;;;;5036063;28;20182;-87
2022/04/20 00:04:17;;;;;;;2.22;2.03;;;18.60;49.00;;;;;;5035965;28;20524;-86
2022/04/20 00:06:43;;;;;;;3.72;2.10;;;18.60;49.10;;;;;;5019335;28;20185;-87
2022/04/20 00:09:08;;;;;;;2.15;1.95;;;18.60;49.00;;;;;;5053789;28;20526;-87
2022/04/20 00:11:34;;;;;;;3.08;2.00;;;18.60;49.10;;;;;;5053582;28;20683;-87
2022/04/20 00:13:59;;;;;;;3.10;2.20;;;18.70;49.10;;;;;;5037815;28;20212;-88
2022/04/20 00:16:26;;;;;;;1.92;1.70;;;18.70;49.10;;;;;;5054700;28;20165;-86
2022/04/20 00:18:54;;;;;;;2.47;1.80;;;18.60;49.10;;;;;;5019672;28;20251;-86
2022/04/20 00:21:22;;;;;;;3.88;2.28;;;18.70;49.10;;;;;;5053549;28;20260;-85
2022/04/20 00:23:49;;;;;;;2.72;2.10;;;18.60;49.20;;;;;;5035903;28;20185;-85
2022/04/20 00:26:18;;;;;;;2.65;1.70;;;18.60;48.90;;;;;;5054782;28;20154;-87
2022/04/20 00:28:44;;;;;;;2.20;2.00;;;18.60;49.10;;;;;;5051903;28;20181;-87
2022/04/20 00:31:10;;;;;;;3.10;2.00;;;18.60;49.10;;;;;;5052489;28;20240;-86
2022/04/20 00:33:37;;;;;;;2.88;2.15;;;18.60;49.30;;;;;;5035950;28;20165;-87
2022/04/20 00:36:04;;;;;;;2.25;2.05;;;18.60;49.30;;;;;;5052247;28;20150;-87
2022/04/20 00:38:32;;;;;;;2.88;2.08;;;18.60;49.40;;;;;;5052807;28;20154;-86
2022/04/20 00:41:02;;;;;;;2.20;2.00;;;18.60;49.20;;;;;;5018879;28;20678;-86
2022/04/20 00:43:30;;;;;;;2.20;2.00;;;18.50;49.20;;;;;;5017961;28;20205;-87
2022/04/20 00:45:59;;;;;;;2.63;2.00;;;18.50;49.30;;;;;;5018365;28;20178;-87
2022/04/20 00:48:25;;;;;;;2.70;2.15;;;18.50;49.30;;;;;;5035122;28;20217;-86
2022/04/20 00:50:53;;;;;;;2.35;2.13;;;18.50;49.40;;;;;;5052263;28;20190;-87
2022/04/20 00:53:20;;;;;;;3.13;2.03;;;18.50;49.40;;;;;;5035261;28;20186;-86
2022/04/20 00:55:48;;;;;;;4.47;2.13;;;18.50;49.10;;;;;;5035274;28;20181;-87
2022/04/20 00:58:14;;;;;;;2.10;1.90;;;18.60;49.40;;;;;;5018553;28;20182;-86
2022/04/20 01:00:39;;;;;;;2.70;2.10;;;18.60;49.40;;;;;;5053454;28;20632;-87
2022/04/20 01:03:06;;;;;;;2.70;1.90;;;18.50;49.30;;;;;;5053458;28;20154;-86
2022/04/20 01:05:33;;;;;;;3.13;2.00;;;18.50;49.40;;;;;;5019225;28;20178;-86
2022/04/20 01:08:01;;;;;;;4.10;2.00;;;18.50;49.40;;;;;;5034917;28;20174;-87
2022/04/20 01:10:29;;;;;;;2.45;2.10;;;18.50;49.40;;;;;;5018204;28;20235;-87
2022/04/20 01:12:56;;;;;;;3.17;1.80;;;18.50;49.20;;;;;;5051396;28;20185;-87
2022/04/20 01:15:23;;;;;;;3.22;2.00;;;18.60;49.30;;;;;;5035115;28;20190;-87
2022/04/20 01:17:51;;;;;;;3.40;2.10;;;18.50;49.40;;;;;;5035208;28;20532;-86
2022/04/20 01:20:18;;;;;;;2.15;1.95;;;18.50;49.40;;;;;;5018272;28;20192;-87
2022/04/20 01:22:46;;;;;;;2.13;1.92;;;18.50;49.40;;;;;;5034539;28;20264;-87
2022/04/20 01:25:13;;;;;;;2.30;2.10;;;18.50;49.50;;;;;;5034301;28;20186;-87
2022/04/20 01:27:39;;;;;;;1.92;1.83;;;18.50;49.20;;;;;;5051884;28;20154;-86
2022/04/20 01:30:06;;;;;;;2.38;2.03;;;18.50;49.40;;;;;;5051737;28;20292;-86
2022/04/20 01:32:31;;;;;;;2.20;2.00;;;18.50;49.30;;;;;;5019101;28;20166;-86
2022/04/20 01:34:59;;;;;;;3.08;2.20;;;18.50;49.40;;;;;;5035640;28;20189;-86
2022/04/20 01:37:28;;;;;;;2.10;1.85;;;18.50;49.30;;;;;;5018250;28;20174;-86
2022/04/20 01:39:56;;;;;;;3.88;2.15;;;18.50;49.40;;;;;;5034662;28;20232;-86
2022/04/20 01:42:24;;;;;;;2.17;2.00;;;18.50;49.40;;;;;;5034697;28;20941;-86
2022/04/20 01:44:49;;;;;;;3.30;2.10;;;18.50;49.40;;;;;;5018208;28;20178;-86
2022/04/20 01:47:18;;;;;;;2.83;2.13;;;18.40;49.50;;;;;;5035370;28;20662;-87
2022/04/20 01:49:44;;;;;;;2.63;2.10;;;18.50;49.50;;;;;;5016849;28;20237;-85
2022/04/20 01:52:11;;;;;;;4.47;2.28;;;18.50;49.70;;;;;;5051077;28;20190;-87
2022/04/20 01:54:38;;;;;;;2.63;1.70;;;18.40;49.40;;;;;;5017788;28;20217;-87
2022/04/20 01:57:05;;;;;;;2.47;2.10;;;18.40;49.60;;;;;;5038418;28;20190;-86
2022/04/20 01:59:31;;;;;;;2.15;1.83;;;18.40;49.50;;;;;;5038924;28;20166;-86
2022/04/20 02:04:37;;;;;;;3.35;2.33;;;18.40;49.60;;;;;;5041728;28;20165;-86
2022/04/20 02:07:03;;;;;;;2.60;2.00;;;18.40;49.60;;;;;;5038684;28;20162;-87
2022/04/20 02:09:28;;;;;;;2.08;1.85;;;18.40;49.70;;;;;;5022500;28;20166;-86
2022/04/20 02:11:54;;;;;;;2.83;2.00;;;18.40;49.50;;;;;;5038975;28;20190;-87
2022/04/20 02:14:20;;;;;;;2.28;1.58;;;18.40;49.60;;;;;;5055190;28;20165;-86
2022/04/20 02:16:46;;;;;;;2.63;1.90;;;18.40;49.40;;;;;;5022174;28;20506;-86
2022/04/20 02:19:11;;;;;;;2.63;2.00;;;18.40;49.40;;;;;;5039138;28;20166;-87
2022/04/20 02:21:37;;;;;;;2.45;2.20;;;18.40;49.70;;;;;;5022441;28;20173;-86
2022/04/20 02:24:03;;;;;;;2.17;1.95;;;18.40;49.70;;;;;;5056392;28;20237;-86
2022/04/20 02:26:29;;;;;;;2.92;2.20;;;18.40;49.60;;;;;;5038388;28;20170;-86
2022/04/20 02:28:54;;;;;;;2.00;1.80;;;18.40;49.60;;;;;;5056503;28;20564;-87
2022/04/20 02:31:20;;;;;;;2.00;1.80;;;18.40;49.70;;;;;;5054859;28;20194;-86
2022/04/20 02:33:47;;;;;;;3.08;2.10;;;18.40;49.70;;;;;;5054797;28;20158;-86
2022/04/20 02:36:12;;;;;;;3.10;2.10;;;18.40;49.90;;;;;;5021304;28;20217;-86
2022/04/20 02:38:39;;;;;;;3.75;2.17;;;18.40;49.90;;;;;;5056215;28;20177;-86
2022/04/20 02:41:04;;;;;;;2.75;1.92;;;18.30;49.80;;;;;;5038788;28;20154;-86
2022/04/20 02:43:30;;;;;;;2.47;2.28;;;18.30;49.90;;;;;;5054918;28;20165;-86
2022/04/20 02:45:57;;;;;;;2.05;1.85;;;18.40;50.00;;;;;;5054592;28;20163;-86
2022/04/20 02:48:22;;;;;;;2.75;2.00;;;18.30;49.90;;;;;;5053451;28;20214;-85
2022/04/20 02:50:50;;;;;;;2.20;2.00;;;18.40;49.70;;;;;;5021681;28;20212;-87
2022/04/20 02:53:15;;;;;;;2.45;2.00;;;18.30;49.80;;;;;;5004626;28;20235;-87
2022/04/20 02:55:42;;;;;;;2.72;1.95;;;18.40;49.80;;;;;;5038067;28;20632;-86
2022/04/20 02:58:08;;;;;;;2.55;2.20;;;18.40;50.00;;;;;;5021624;28;20162;-86
2022/04/20 03:00:34;;;;;;;2.90;1.70;;;18.30;49.90;;;;;;5021845;28;20172;-86
2022/04/20 03:02:59;;;;;;;3.35;2.00;;;18.40;49.80;;;;;;5055983;28;20508;-86
2022/04/20 03:05:25;;;;;;;2.63;1.90;;;18.30;50.00;;;;;;5037763;28;20154;-87
2022/04/20 03:07:51;;;;;;;3.55;1.98;;;18.30;50.20;;;;;;5054443;28;20158;-86
2022/04/20 03:10:17;;;;;;;2.20;2.00;;;18.30;50.10;;;;;;5055352;28;20243;-86
2022/04/20 03:12:42;;;;;;;2.40;1.95;;;18.30;50.00;;;;;;5021779;28;20235;-87
2022/04/20 03:15:09;;;;;;;2.33;1.90;;;18.30;50.00;;;;;;5021887;28;20601;-86
2022/04/20 03:17:34;;;;;;;2.70;2.10;;;18.30;50.20;;;;;;5037486;28;20157;-86
2022/04/20 03:20:01;;;;;;;2.15;1.95;;;18.30;49.90;;;;;;5037629;28;20155;-86
2022/04/20 03:22:28;;;;;;;5.57;2.15;;;18.30;50.00;;;;;;5036497;28;20193;-86
2022/04/20 03:24:55;;;;;;;4.90;2.40;;;18.30;50.10;;;;;;5052998;28;20703;-86
2022/04/20 03:27:22;;;;;;;2.15;1.95;;;18.30;49.90;;;;;;5036481;28;20545;-86
2022/04/20 03:29:49;;;;;;;2.90;1.70;;;18.30;50.00;;;;;;5053205;28;20659;-86
2022/04/20 03:32:16;;;;;;;1.85;1.75;;;18.30;49.90;;;;;;5036968;28;20194;-86
2022/04/20 03:34:43;;;;;;;2.63;2.10;;;18.30;50.00;;;;;;5036491;28;20189;-86
2022/04/20 03:37:10;;;;;;;2.10;1.90;;;18.30;50.10;;;;;;5036511;28;20197;-87
2022/04/20 03:39:37;;;;;;;2.55;2.20;;;18.30;49.90;;;;;;5019965;28;20189;-87
2022/04/20 03:42:04;;;;;;;2.60;2.00;;;18.30;50.10;;;;;;5053721;28;20162;-86
2022/04/20 03:44:30;;;;;;;3.45;1.83;;;18.30;50.10;;;;;;5020686;28;20158;-86
2022/04/20 03:46:56;;;;;;;2.60;2.00;;;18.30;50.00;;;;;;5054938;28;20237;-87
2022/04/20 03:49:22;;;;;;;1.90;1.80;;;18.30;50.10;;;;;;5053256;28;20228;-87
2022/04/20 03:51:48;;;;;;;2.70;2.00;;;18.30;50.30;;;;;;5053187;28;20189;-87
2022/04/20 03:54:14;;;;;;;3.38;2.20;;;18.20;50.30;;;;;;5053843;28;20582;-86
2022/04/20 03:59:23;;;;;;;2.00;1.80;;;18.20;50.30;;;;;;5039253;28;20216;-87
2022/04/20 04:01:49;;;;;;;2.20;2.00;;;18.20;50.30;;;;;;5053400;28;20166;-87
2022/04/20 04:04:15;;;;;;;2.20;1.90;;;18.20;50.00;;;;;;5020591;28;20174;-86
2022/04/20 04:06:40;;;;;;;2.50;1.98;;;18.20;50.10;;;;;;5019877;28;20169;-86
2022/04/20 04:09:06;;;;;;;3.33;1.90;;;18.20;50.20;;;;;;5052977;28;20161;-86
2022/04/20 04:11:32;;;;;;;4.07;2.00;;;18.30;50.30;;;;;;5036438;28;20236;-87
2022/04/20 04:13:58;;;;;;;2.92;1.95;;;18.20;50.30;;;;;;5054178;28;20158;-86
2022/04/20 04:16:24;;;;;;;2.45;2.10;;;18.30;50.20;;;;;;5054415;28;20146;-86
2022/04/20 04:18:50;;;;;;;2.33;2.00;;;18.20;50.30;;;;;;5052652;28;20232;-86
2022/04/20 04:21:16;;;;;;;3.13;2.03;;;18.20;50.30;;;;;;5036794;28;20170;-86
2022/04/20 04:23:43;;;;;;;3.17;1.98;;;18.30;50.30;;;;;;5052628;28;20174;-85
2022/04/20 04:26:09;;;;;;;3.45;2.13;;;18.20;50.20;;;;;;5035339;28;20193;-86
2022/04/20 04:28:35;;;;;;;2.53;1.70;;;18.20;50.30;;;;;;5019660;28;20162;-87
2022/04/20 04:31:01;;;;;;;2.53;2.00;;;18.20;50.30;;;;;;5036258;28;20204;-86
2022/04/20 04:33:27;;;;;;;2.58;2.30;;;18.30;50.10;;;;;;5019890;28;20195;-88
2022/04/20 04:35:53;;;;;;;2.13;1.88;;;18.30;50.00;;;;;;5036441;28;20631;-86
2022/04/20 04:38:19;;;;;;;2.85;1.88;;;18.30;49.90;;;;;;5052752;28;20158;-86
2022/04/20 04:40:45;;;;;;;2.63;2.00;;;18.40;50.50;;;;;;5035869;28;20162;-86
2022/04/20 04:43:10;;;;;;;2.20;2.00;;;18.30;49.80;;;;;;5019442;28;20169;-86
2022/04/20 04:50:55;;;;;;;2.08;1.95;;;18.40;49.20;;;;;;5052428;28;20201;-86
2022/04/20 04:53:21;;;;;;;2.20;2.00;;;18.40;49.60;;;;;;5052428;28;20582;-86
2022/04/20 04:55:46;;;;;;;2.10;1.90;;;18.40;49.60;;;;;;5019445;28;20169;-87
2022/04/20 04:58:13;;;;;;;2.33;2.00;;;18.40;49.10;;;;;;5052157;28;20165;-86
2022/04/20 05:00:38;;;;;;;2.28;1.90;;;18.50;49.30;;;;;;5019370;28;20189;-86
2022/04/20 05:03:04;;;;;;;2.28;2.00;;;18.50;49.00;;;;;;5036189;28;20613;-86
2022/04/20 05:05:31;;;;;;;2.17;1.98;;;18.40;49.20;;;;;;5035547;28;20520;-87
2022/04/20 05:07:57;;;;;;;2.03;1.83;;;18.50;49.10;;;;;;5035634;28;20172;-87
2022/04/20 05:10:23;;;;;;;2.15;1.92;;;18.40;49.20;;;;;;5052015;28;20190;-86
2022/04/20 05:12:48;;;;;;;2.72;2.10;;;18.50;49.10;;;;;;5035544;28;20204;-86
2022/04/20 05:15:14;;;;;;;2.85;1.90;;;18.50;49.10;;;;;;5019075;28;20609;-85
2022/04/20 05:17:40;;;;;;;2.25;1.83;;;18.50;49.10;;;;;;5051916;28;20158;-85
2022/04/20 05:20:06;;;;;;;2.85;1.90;;;18.50;49.20;;;;;;5035773;28;20209;-86
2022/04/20 05:22:32;;;;;;;1.90;1.80;;;18.50;48.90;;;;;;5035402;28;20165;-86
2022/04/20 05:24:58;;;;;;;2.10;1.85;;;18.50;49.00;;;;;;5053125;28;20147;-86
2022/04/20 05:27:23;;;;;;;2.28;2.00;;;18.60;48.90;;;;;;5018898;28;20504;-86
2022/04/20 05:29:50;;;;;;;2.08;1.70;;;18.60;49.20;;;;;;5052493;28;20204;-85
2022/04/20 05:32:15;;;;;;;2.05;1.80;;;18.50;49.00;;;;;;5039708;28;20193;-86
2022/04/20 05:34:41;;;;;;;3.70;2.08;;;18.60;49.10;;;;;;5039679;28;20205;-86
2022/04/20 05:42:27;;;;;;;1.88;1.65;;;18.60;48.80;;;;;;5056277;28;20166;-86
2022/04/20 05:44:53;;;;;;;2.15;1.90;;;18.60;49.40;;;;;;5057336;28;20161;-86
2022/04/20 05:47:18;;;;;;;3.50;1.85;;;18.60;49.00;;;;;;5055829;28;20169;-86
2022/04/20 05:49:44;;;;;;;2.17;1.98;;;18.60;48.90;;;;;;5055391;28;20217;-86
2022/04/20 05:52:09;;;;;;;3.80;1.90;;;18.60;48.80;;;;;;5056648;28;20251;-86
2022/04/20 05:54:35;;;;;;;4.30;1.77;;;18.60;48.60;;;;;;5055655;28;20157;-86
2022/04/20 05:57:01;;;;;;;2.42;1.70;;;18.70;48.70;;;;;;5038796;28;20153;-86
2022/04/20 05:59:27;;;;;;;3.30;2.08;;;18.70;48.50;;;;;;5055583;28;20155;-86
2022/04/20 06:01:53;;;;;;;2.33;2.13;;;18.70;48.50;;;;;;5039405;28;20182;-86
2022/04/20 06:04:20;;;;;;;3.42;2.13;;;18.70;48.50;;;;;;5038919;28;20162;-86
2022/04/20 06:06:46;;;;;;;1.80;1.70;;;18.70;48.50;;;;;;5037989;28;20178;-86
2022/04/20 06:09:11;;;;;;;2.38;2.03;;;18.70;48.60;;;;;;5055463;28;20205;-86
2022/04/20 06:11:37;;;;;;;2.30;1.80;;;18.70;48.70;;;;;;5038724;28;20202;-86
2022/04/20 06:14:03;;;;;;;1.95;1.80;;;18.70;48.50;;;;;;5038547;28;20241;-86
2022/04/20 06:16:29;;;;;;;3.00;1.85;;;18.70;48.50;;;;;;5022476;28;20166;-85
2022/04/20 06:18:56;;;;;;;1.95;1.80;;;18.70;48.50;;;;;;5022694;28;20157;-87
2022/04/20 06:21:22;;;;;;;2.03;1.83;;;18.70;48.70;;;;;;5022316;28;20184;-86
2022/04/20 06:23:47;;;;;;;3.80;1.92;;;18.70;48.70;;;;;;5039788;28;20170;-86
2022/04/20 06:26:13;;;;;;;2.00;1.80;;;18.70;48.70;;;;;;5058829;28;20158;-86
2022/04/20 06:28:39;;;;;;;1.83;1.73;;;18.60;48.90;;;;;;5060399;28;20185;-87
2022/04/20 06:31:05;;;;;;;2.40;1.90;;;18.60;48.70;;;;;;5059795;28;20186;-86
2022/04/20 06:33:31;;;;;;;1.90;1.80;;;18.70;49.20;;;;;;5042339;28;20165;-86
2022/04/20 06:35:58;;;;;;;2.33;2.05;;;18.70;48.60;;;;;;5043378;28;20159;-86
2022/04/20 06:38:23;;;;;;;2.10;1.90;;;18.70;48.70;;;;;;5029104;28;20173;-86
2022/04/20 06:40:50;;;;;;;2.00;1.80;;;18.70;48.60;;;;;;5026620;28;20177;-85
2022/04/20 06:43:15;;;;;;;2.90;2.00;;;18.60;49.00;;;;;;5025893;28;20202;-86
2022/04/20 06:45:41;;;;;;;2.20;2.00;;;18.60;48.80;;;;;;5059626;28;20181;-86
2022/04/20 06:48:08;;;;;;;2.08;1.88;;;18.70;48.60;;;;;;5044214;28;20196;-85
2022/04/20 06:50:34;;;;;;;2.35;1.90;;;18.70;48.50;;;;;;5055461;28;20230;-87
2022/04/20 07:00:57;;;;;;;3.13;1.90;;;18.60;48.90;;;;;;5062944;28;20245;-83
2022/04/20 07:03:31;;;;;;;2.78;1.90;;;18.60;48.60;;;;;;5029807;28;20208;-81
2022/04/20 07:06:02;;;;;;;2.80;1.85;;;18.70;48.60;;;;;;5044585;28;20213;-84
2022/04/20 07:08:29;;;;;;;1.95;1.85;;;18.70;48.50;;;;;;5061361;28;20186;-84
2022/04/20 07:10:55;;;;;;;2.97;1.80;;;18.80;48.60;;;;;;5049738;28;20189;-86
2022/04/20 07:13:21;;;;;;;4.72;1.85;;;18.70;49.00;;;;;;5076518;28;20170;-86
2022/04/20 07:15:52;;;;;;;1.92;1.73;;;18.70;48.00;;;;;;5060363;28;20181;-85
2022/04/20 07:18:18;;;;;;;2.00;1.80;;;18.80;47.80;;;;;;5049760;28;20191;-87
2022/04/20 07:20:48;;;;;;;1.75;1.65;;;18.80;48.70;;;;;;5042886;28;20189;-84
2022/04/20 07:23:17;;;;;;;2.10;1.90;;;18.80;48.00;;;;;;5049290;28;20193;-86
2022/04/20 07:25:43;;;;;;;2.42;1.77;;;18.80;48.60;;;;;;5021476;28;20266;-86
2022/04/20 07:28:09;;;;;;;3.05;1.70;;;18.70;48.70;;;;;;5045927;28;20193;-84
2022/04/20 07:30:37;;;;;;;2.15;1.95;;;18.70;48.00;;;;;;5039798;28;20720;-84
2022/04/20 07:33:09;;;;;;;2.15;1.95;;;18.80;48.10;;;;;;5056737;28;20194;-86
2022/04/20 07:35:39;;;;;;;1.77;1.67;;;18.80;48.20;;;;;;5057598;28;20178;-87
2022/04/20 07:38:05;;;;;;;2.15;1.83;;;18.80;48.20;;;;;;5060693;28;20185;-88
2022/04/20 07:40:31;;;;;;;2.88;2.10;;;18.90;48.20;;;;;;5045457;28;20174;-84
2022/04/20 07:42:57;;;;;;;1.83;1.73;;;18.90;48.40;;;;;;5046875;28;20193;-85
2022/04/20 07:45:25;;;;;;;2.25;1.70;;;18.90;48.40;;;;;;5047297;28;20695;-88
2022/04/20 07:47:54;;;;;;;2.05;1.90;;;18.90;48.70;;;;;;5030036;28;20200;-85
2022/04/20 07:50:24;;;;;;;3.50;1.90;;;19.00;48.10;;;;;;5044236;28;20263;-85
2022/04/20 07:52:53;;;;;;;2.70;1.90;;;19.00;47.90;;;;;;5027681;28;20163;-86
2022/04/20 07:55:22;;;;;;;1.90;1.60;;;19.00;48.20;;;;;;5048612;28;20150;-85
2022/04/20 07:57:50;;;;;;;5.22;2.00;;;19.00;48.30;;;;;;5048419;28;20172;-85
2022/04/20 08:00:17;;;;;;;1.80;1.60;;;19.00;48.20;;;;;;5042771;28;20193;-86
2022/04/20 08:02:44;;;;;;;3.17;1.67;;;19.00;48.40;;;;;;5041829;28;20162;-84
2022/04/20 08:05:13;;;;;;;2.95;1.70;;;18.90;48.60;;;;;;5027374;28;20189;-83
2022/04/20 08:07:39;;;;;;;2.33;1.92;;;18.90;48.50;;;;;;5049986;28;20166;-85
2022/04/20 08:10:11;;;;;;;2.10;1.95;;;19.00;48.40;;;;;;5027022;28;20155;-83
2022/04/20 08:12:38;;;;;;;1.75;1.63;;;18.90;48.40;;;;;;5053419;28;20201;-86
2022/04/20 08:15:04;;;;;;;1.95;1.75;;;19.00;48.20;;;;;;5038620;28;20198;-84
2022/04/20 08:17:31;;;;;;;2.13;1.90;;;19.00;47.80;;;;;;5039519;28;20167;-86
2022/04/20 08:19:57;;;;;;;2.00;1.80;;;19.00;48.20;;;;;;5042299;28;20178;-85
2022/04/20 08:22:24;;;;;;;2.03;1.77;;;19.10;48.10;;;;;;5041980;28;20201;-84
2022/04/20 08:24:51;;;;;;;1.80;1.60;;;19.10;47.90;;;;;;5041244;28;20151;-85
2022/04/20 08:27:22;;;;;;;3.58;1.70;;;19.10;48.10;;;;;;5039935;28;20159;-83
2022/04/20 08:29:48;;;;;;;2.17;1.90;;;19.10;47.90;;;;;;5040667;28;20182;-84
2022/04/20 08:32:16;;;;;;;2.30;1.85;;;19.10;48.00;;;;;;5024032;28;20195;-82
2022/04/20 08:34:43;;;;;;;2.00;1.80;;;19.10;48.20;;;;;;5024203;28;20209;-83
2022/04/20 08:37:09;;;;;;;2.10;1.75;;;19.10;48.30;;;;;;5040540;28;20239;-85
2022/04/20 08:39:44;;;;;;;2.72;1.90;;;19.10;47.90;;;;;;5043716;28;20238;-84
2022/04/20 08:42:12;;;;;;;3.55;1.90;;;19.10;48.20;;;;;;5059681;28;20172;-84
2022/04/20 08:44:42;;;;;;;3.35;1.90;;;19.10;48.20;;;;;;5044728;28;20245;-85
2022/04/20 08:47:07;;;;;;;2.15;1.80;;;19.10;48.50;;;;;;5060473;28;20158;-83
2022/04/20 08:49:34;;;;;;;1.58;1.48;;;19.10;48.10;;;;;;5058695;28;20582;-85
2022/04/20 08:54:37;;;;;;;3.22;2.13;;;19.10;48.40;;;;;;5064800;28;20189;-86
2022/04/20 08:59:49;;;;;;;2.28;1.70;;;19.10;48.20;;;;;;5064056;28;20149;-87
2022/04/20 09:02:16;;;;;;;3.30;1.90;;;19.10;48.60;;;;;;5044257;28;20208;-87
2022/04/20 09:04:42;;;;;;;2.30;1.90;;;19.10;49.10;;;;;;5038647;28;20197;-86
2022/04/20 09:07:14;;;;;;;3.65;1.83;;;19.10;48.40;;;;;;5040879;28;20178;-87
2022/04/20 09:09:41;;;;;;;6.20;2.00;;;19.10;48.30;;;;;;5024297;28;20521;-83
2022/04/20 09:12:10;;;;;;;2.00;1.77;;;19.10;48.00;;;;;;5035473;28;20195;-85
2022/04/20 09:14:41;;;;;;;2.35;1.60;;;19.20;48.20;;;;;;5035794;28;20157;-86
2022/04/20 09:17:17;;;;;;;1.75;1.65;;;19.20;48.30;;;;;;5041449;28;20231;-86
2022/04/20 09:19:51;;;;;;;3.35;1.88;;;19.10;48.30;;;;;;5061102;28;20224;-87
2022/04/20 09:22:22;;;;;;;1.80;1.70;;;19.10;48.50;;;;;;5029109;28;20190;-86
2022/04/20 09:25:11;;;;;;;1.90;1.80;;;19.10;48.60;;;;;;5022089;28;20185;-86
2022/04/20 09:27:39;;;;;;;2.75;1.92;;;19.10;48.50;;;;;;5022672;28;20660;-87
2022/04/20 09:30:16;;;;;;;2.58;1.90;;;19.10;48.40;;;;;;5039535;28;20204;-86
2022/04/20 09:32:45;;;;;;;2.15;1.80;;;19.10;48.50;;;;;;4976033;28;20252;-86
2022/04/20 09:35:19;;;;;;;2.03;1.70;;;19.10;48.10;;;;;;4928315;28;20176;-87
2022/04/20 09:38:02;;;;;;;2.45;1.92;;;19.10;48.40;;;;;;4944089;28;20223;-87
2022/04/20 09:40:35;;;;;;;2.03;1.83;;;19.10;48.30;;;;;;4944560;28;20644;-87
2022/04/20 09:43:07;;;;;;;2.88;2.13;;;19.10;48.10;;;;;;4927349;28;20184;-87
2022/04/20 09:45:37;;;;;;;1.95;1.75;;;19.10;47.90;;;;;;4942544;28;20184;-88
2022/04/20 09:51:11;;;;;;;3.25;1.90;;;19.10;48.30;;;;;;4915169;29;20221;-86
2022/04/20 09:53:40;;;;;;;2.30;1.98;;;19.10;48.10;;;;;;4893817;29;20218;-85
2022/04/20 09:56:25;;;;;;;1.80;1.70;;;19.00;48.20;;;;;;4894843;29;20190;-85
2022/04/20 09:58:59;;;;;;;3.00;1.80;;;19.10;47.80;;;;;;4924255;29;20186;-86
2022/04/20 10:01:34;;;;;;;2.92;1.90;;;19.20;47.80;;;;;;4889603;29;20190;-86
2022/04/20 10:04:08;;;;;;;3.90;2.00;;;19.20;47.50;;;;;;4900805;28;20651;-85
2022/04/20 10:06:43;;;;;;;2.13;1.90;;;19.20;47.80;;;;;;4931877;28;20196;-85
2022/04/20 10:09:09;;;;;;;2.55;1.70;;;19.20;47.80;;;;;;4937384;28;20188;-84
2022/04/20 10:11:36;;;;;;;2.03;1.83;;;19.20;48.10;;;;;;4998969;28;20333;-86
2022/04/20 10:16:50;;;;;;;2.20;2.00;;;19.10;48.20;;;;;;5004257;28;20194;-86
2022/04/20 10:19:26;;;;;;;2.15;1.70;;;19.10;48.10;;;;;;5004558;28;20199;-85
2022/04/20 10:21:53;;;;;;;1.95;1.75;;;19.20;47.70;;;;;;5031039;28;20617;-85
2022/04/20 10:24:24;;;;;;;1.88;1.75;;;19.20;47.90;;;;;;5032093;28;20163;-85
2022/04/20 10:26:57;;;;;;;2.05;1.85;;;19.20;47.70;;;;;;5047631;28;20182;-87
2022/04/20 10:29:36;;;;;;;3.13;1.90;;;19.20;47.50;;;;;;5023436;28;20239;-84
2022/04/20 10:32:10;;;;;;;2.40;1.80;;;19.20;47.10;;;;;;5024721;28;20221;-84
2022/04/20 10:34:39;;;;;;;2.38;1.92;;;19.20;47.70;;;;;;5045293;28;20284;-84
2022/04/20 10:37:09;;;;;;;2.33;1.80;;;19.20;47.40;;;;;;5066067;28;20186;-83
2022/04/20 10:39:40;;;;;;;2.08;1.88;;;19.20;47.40;;;;;;5029614;28;20182;-84
2022/04/20 10:42:19;;;;;;;2.00;1.80;;;19.30;47.40;;;;;;5029558;28;20227;-86
2022/04/20 10:45:00;;;;;;;1.95;1.75;;;19.10;48.00;;;;;;5025988;28;20578;-86
2022/04/20 10:47:32;;;;;;;3.35;1.95;;;19.20;47.80;;;;;;5042463;28;20190;-86
2022/04/20 10:50:18;;;;;;;1.88;1.73;;;19.20;47.90;;;;;;5040785;28;20232;-85
2022/04/20 10:52:48;;;;;;;2.10;1.80;;;19.20;47.80;;;;;;5056296;28;20299;-85
2022/04/20 10:55:23;;;;;;;1.95;1.85;;;19.20;47.60;;;;;;5057145;28;20177;-86
2022/04/20 10:57:52;;;;;;;2.10;1.90;;;19.20;47.50;;;;;;5041559;28;20178;-86
2022/04/20 11:00:26;;;;;;;1.80;1.70;;;19.20;47.80;;;;;;5061743;28;20621;-87
2022/04/20 11:03:00;;;;;;;1.85;1.75;;;19.20;47.40;;;;;;5063654;28;20172;-85
2022/04/20 11:05:27;;;;;;;1.98;1.77;;;19.20;47.70;;;;;;5043571;28;20199;-87
2022/04/20 11:08:14;;;;;;;2.92;2.08;;;19.20;47.50;;;;;;5060609;28;20182;-87
2022/04/20 11:19:09;;;;;;;3.22;1.90;;;19.20;47.80;;;;;;5045668;28;20161;-85
2022/04/20 11:21:36;;;;;;;2.35;1.92;;;19.20;47.70;;;;;;5043657;28;20155;-85
2022/04/20 11:24:06;;;;;;;1.80;1.70;;;19.10;47.50;;;;;;5025190;28;20257;-85
2022/04/20 11:26:48;;;;;;;2.08;1.88;;;19.20;47.70;;;;;;5042742;28;20158;-87
2022/04/20 11:29:15;;;;;;;2.22;1.90;;;19.10;48.10;;;;;;5042592;28;20154;-86
2022/04/20 11:31:45;;;;;;;2.10;1.90;;;19.10;47.90;;;;;;5043134;28;20190;-87
2022/04/20 11:34:16;;;;;;;2.40;2.20;;;19.20;47.60;;;;;;5028080;28;20524;-85
2022/04/20 11:36:43;;;;;;;2.58;2.10;;;19.20;47.80;;;;;;5042388;28;20192;-84
2022/04/20 11:39:10;;;;;;;2.22;1.98;;;19.30;47.80;;;;;;5060884;28;20610;-85
2022/04/20 11:41:43;;;;;;;2.20;2.00;;;19.20;47.50;;;;;;5042703;28;20200;-87
2022/04/20 11:44:24;;;;;;;2.38;2.00;;;19.20;47.70;;;;;;5023891;28;20166;-86
2022/04/20 11:46:58;;;;;;;2.08;1.95;;;19.20;47.60;;;;;;5042221;28;20162;-84
2022/04/20 11:49:35;;;;;;;3.85;1.80;;;19.20;47.60;;;;;;5041261;28;20227;-83
2022/04/20 11:52:09;;;;;;;2.50;2.30;;;19.20;47.60;;;;;;5044618;28;20208;-83
2022/04/20 11:54:36;;;;;;;2.10;1.90;;;19.10;47.60;;;;;;5046029;28;20153;-86
2022/04/20 11:57:04;;;;;;;2.63;2.38;;;19.20;47.30;;;;;;5029555;28;20217;-85
2022/04/20 11:59:30;;;;;;;2.35;2.10;;;19.20;47.60;;;;;;5061142;28;20150;-84
2022/04/20 12:02:01;;;;;;;3.45;2.25;;;19.10;47.70;;;;;;5047316;28;20166;-84
2022/04/20 12:04:28;;;;;;;2.63;2.22;;;19.10;47.50;;;;;;5044937;28;20154;-84
2022/04/20 12:06:58;;;;;;;2.42;2.00;;;19.20;47.20;;;;;;5029111;28;20276;-85
2022/04/20 12:09:32;;;;;;;2.60;2.40;;;19.20;47.80;;;;;;5030505;28;20644;-85
2022/04/20 12:12:06;;;;;;;2.30;2.08;;;19.10;47.50;;;;;;5028874;28;20209;-85
2022/04/20 12:14:34;;;;;;;6.53;2.10;;;19.20;47.30;;;;;;5031629;28;20188;-83
2022/04/20 12:17:03;;;;;;;2.33;2.13;;;19.20;47.20;;;;;;5048211;28;20158;-82
2022/04/20 12:19:30;;;;;;;2.50;2.30;;;19.20;47.30;;;;;;5031432;28;20678;-84
2022/04/20 12:22:05;;;;;;;2.30;2.10;;;19.20;47.00;;;;;;5046481;28;20199;-83
2022/04/20 12:24:34;;;;;;;3.22;2.17;;;19.20;47.40;;;;;;5047757;28;20149;-83
2022/04/20 12:27:02;;;;;;;2.28;2.08;;;19.20;47.50;;;;;;5048723;28;20635;-82
2022/04/20 12:29:33;;;;;;;3.92;2.10;;;19.20;47.00;;;;;;5065667;28;20189;-83
2022/04/20 12:32:00;;;;;;;2.30;2.10;;;19.20;47.50;;;;;;5032032;28;20738;-83
2022/04/20 12:34:29;;;;;;;2.50;2.00;;;19.30;46.50;;;;;;5048121;28;20178;-83
2022/04/20 12:37:14;;;;;;;3.78;2.15;;;19.30;46.60;;;;;;5065191;28;20217;-84
2022/04/20 12:39:44;;;;;;;2.20;1.98;;;19.20;47.10;;;;;;5063371;28;20218;-84
2022/04/20 12:42:12;;;;;;;2.33;2.13;;;19.20;46.70;;;;;;5031551;28;20625;-83
2022/04/20 12:44:51;;;;;;;2.92;2.50;;;19.20;47.10;;;;;;5047420;28;20158;-83
2022/04/20 12:47:18;;;;;;;3.60;2.13;;;19.20;47.30;;;;;;5045149;28;20158;-83
2022/04/20 12:50:14;;;;;;;2.30;2.10;;;19.20;47.50;;;;;;5065521;28;20214;-83
2022/04/20 12:52:50;;;;;;;2.33;2.13;;;19.30;46.40;;;;;;5016832;28;20248;-84
2022/04/20 12:55:17;;;;;;;2.45;1.88;;;19.30;46.70;;;;;;5030549;28;20208;-83
2022/04/20 13:03:35;;;;;;;2.35;2.15;;;19.30;46.80;;;;;;5047326;28;20158;-84
2022/04/20 13:06:10;;;;;;;2.45;2.25;;;19.30;47.00;;;;;;5047561;28;20165;-83
2022/04/20 13:08:38;;;;;;;2.40;2.10;;;19.30;46.80;;;;;;5063232;28;20237;-84
2022/04/20 13:11:03;;;;;;;2.78;2.00;;;19.30;46.50;;;;;;5046228;28;20186;-83
2022/04/20 13:13:32;;;;;;;2.25;2.05;;;19.30;46.20;;;;;;5027680;28;20222;-86
2022/04/20 13:15:58;;;;;;;2.40;2.20;;;19.30;46.80;;;;;;5043419;28;20185;-84
2022/04/20 13:18:24;;;;;;;2.15;1.95;;;19.40;46.70;;;;;;5028739;28;20617;-87
2022/04/20 13:20:52;;;;;;;2.33;2.13;;;19.30;46.60;;;;;;5058079;28;20597;-87
2022/04/20 13:23:20;;;;;;;2.40;2.20;;;19.30;46.40;;;;;;5027758;28;20173;-85
2022/04/20 13:28:29;;;;;;;2.75;2.30;;;19.30;46.40;;;;;;5060253;28;20537;-85
2022/04/20 13:30:59;;;;;;;2.47;2.28;;;19.30;46.20;;;;;;5062141;28;20249;-84
2022/04/20 13:33:25;;;;;;;2.80;2.17;;;19.30;46.00;;;;;;5046732;28;20151;-83
2022/04/20 13:35:53;;;;;;;3.70;2.25;;;19.40;46.10;;;;;;5030460;28;20165;-84
2022/04/20 13:38:19;;;;;;;2.38;2.17;;;19.30;46.50;;;;;;5029962;28;20162;-85
2022/04/20 13:40:45;;;;;;;3.88;2.40;;;19.30;46.50;;;;;;5061545;28;20193;-85
2022/04/20 13:43:11;;;;;;;2.55;2.30;;;19.30;46.40;;;;;;5045779;28;20157;-86
2022/04/20 13:45:37;;;;;;;2.53;2.33;;;19.20;46.40;;;;;;5061106;28;20213;-84